Time;durP1;ratioP1;P1;durP2;ratioP2;P2;SDS_P1;SDS_P2;PMS_P1;PMS_P2;Temp;Humidity;BMP_temperature;BMP_pressure;BME280_temperature;BME280_humidity;BME280_pressure;Samples;Min_cycle;Max_cycle;Signal;HPM_P1;HPM_P2
2023/07/09 08:20:54;;;;;;;;;;;;;;;11.42;100.00;99947.44;4924981;28;19937;-85
2023/07/09 08:23:19;;;;;;;;;;;;;;;10.95;100.00;99938.88;4920455;29;19923;-84
2023/07/09 08:25:52;;;;;;;;;;;;;;;10.93;100.00;99932.75;4921332;29;20270;-87
2023/07/09 08:28:17;;;;;;;;;;;;;;;11.40;100.00;99941.31;4921900;29;19926;-84
2023/07/09 08:30:43;;;;;;;;;;;;;;;11.62;100.00;99946.56;4906300;29;19919;-84
2023/07/09 08:33:08;;;;;;;;;;;;;;;11.74;100.00;99942.50;4920755;29;19919;-86
2023/07/09 08:35:33;;;;;;;;;;;;;;;11.00;100.00;99943.03;4918787;29;19925;-85
2023/07/09 08:37:58;;;;;;;;;;;;;;;10.72;100.00;99938.91;4902368;29;19961;-84
2023/07/09 08:40:24;;;;;;;;;;;;;;;10.63;100.00;99939.28;4920421;29;20392;-84
2023/07/09 08:42:52;;;;;;;;;;;;;;;10.99;100.00;99925.44;4917236;29;19926;-84
2023/07/09 08:45:20;;;;;;;;;;;;;;;11.49;100.00;99928.59;4944433;23;19926;-84
2023/07/09 08:47:51;;;;;;;;;;;;;;;11.73;100.00;99922.19;5000159;28;19929;-85
2023/07/09 08:50:19;;;;;;;;;;;;;;;11.88;100.00;99922.41;5003433;28;19949;-85
2023/07/09 08:52:46;;;;;;;;;;;;;;;11.20;100.00;99915.69;4987419;28;19969;-91
2023/07/09 08:55:16;;;;;;;;;;;;;;;11.41;100.00;99913.88;4996045;28;19957;-85
2023/07/09 08:57:42;;;;;;;;;;;;;;;11.81;100.00;99904.09;4999087;28;19924;-86
2023/07/09 09:00:16;;;;;;;;;;;;;;;11.99;100.00;99904.22;4981632;28;19972;-86
2023/07/09 09:02:46;;;;;;;;;;;;;;;12.02;100.00;99909.38;4996782;28;19965;-90
2023/07/09 09:05:15;;;;;;;;;;;;;;;11.53;100.00;99906.28;4994069;28;20012;-84
2023/07/09 09:07:44;;;;;;;;;;;;;;;11.88;100.00;99906.50;4976239;28;19922;-84
2023/07/09 09:10:12;;;;;;;;;;;;;;;12.13;100.00;99906.25;4976105;28;20392;-85
2023/07/09 09:12:41;;;;;;;;;;;;;;;12.22;100.00;99903.16;4974624;28;19922;-84
2023/07/09 09:15:12;;;;;;;;;;;;;;;11.45;100.00;99894.25;4976237;28;19918;-85
2023/07/09 09:17:38;;;;;;;;;;;;;;;11.88;100.00;99890.56;4982126;28;19972;-86
2023/07/09 09:20:08;;;;;;;;;;;;;;;12.15;100.00;99893.72;4969203;28;19925;-85
2023/07/09 09:22:42;;;;;;;;;;;;;;;12.26;100.00;99896.72;4984925;28;19994;-85
2023/07/09 09:25:26;;;;;;;;;;;;;;;11.78;100.00;99890.13;4985640;28;19922;-86
2023/07/09 09:27:51;;;;;;;;;;;;;;;11.73;100.00;99881.53;4974416;28;19957;-87
2023/07/09 12:49:41;;;;;;;;;;;;;;;12.78;100.00;99765.72;5002120;28;19933;-83
2023/07/09 12:52:09;;;;;;;;;;;;;;;12.95;100.00;99755.97;5002471;28;19929;-83
2023/07/09 12:54:34;;;;;;;;;;;;;;;13.08;100.00;99763.22;5002717;28;19965;-83
2023/07/09 12:56:59;;;;;;;;;;;;;;;12.99;100.00;99763.72;5002625;28;19972;-83
2023/07/09 12:59:27;;;;;;;;;;;;;;;12.29;100.00;99757.59;5002053;28;19921;-83
2023/07/09 13:02:06;;;;;;;;;;;;;;;12.74;100.00;99758.81;5000198;28;20337;-82
2023/07/09 13:04:37;;;;;;;;;;;;;;;12.94;100.00;99770.19;5001440;28;20284;-83
2023/07/09 13:07:02;;;;;;;;;;;;;;;12.98;100.00;99771.75;5002975;28;19926;-88
2023/07/09 13:09:28;;;;;;;;;;;;;;;12.50;100.00;99767.13;5001077;28;19929;-83
2023/07/09 13:11:54;;;;;;;;;;;;;;;11.84;100.00;99767.72;5000986;28;19929;-82
2023/07/09 13:14:40;;;;;;;;;;;;;;;11.59;100.00;99768.88;5002249;28;20368;-82
2023/07/09 13:17:06;;;;;;;;;;;;;;;11.91;100.00;99774.44;4982661;28;20053;-83
2023/07/09 13:19:31;;;;;;;;;;;;;;;12.35;100.00;99767.91;5002143;28;19957;-83
2023/07/09 13:21:57;;;;;;;;;;;;;;;12.59;100.00;99776.44;4999027;28;19953;-83
2023/07/09 13:24:23;;;;;;;;;;;;;;;12.72;100.00;99795.25;5001570;28;19922;-84
2023/07/09 13:26:49;;;;;;;;;;;;;;;13.30;100.00;99793.97;5004176;28;20380;-83
2023/07/09 13:29:15;;;;;;;;;;;;;;;12.24;100.00;99786.16;5005839;28;19924;-84
2023/07/09 13:31:41;;;;;;;;;;;;;;;12.20;100.00;99800.56;5004281;28;20015;-86
2023/07/09 13:34:13;;;;;;;;;;;;;;;12.23;100.00;99801.25;5005969;28;20044;-84
2023/07/09 13:36:38;;;;;;;;;;;;;;;12.28;100.00;99799.22;5004351;28;19975;-85
2023/07/09 13:39:03;;;;;;;;;;;;;;;11.58;100.00;99800.78;5003967;28;19961;-83
2023/07/09 13:41:29;;;;;;;;;;;;;;;11.74;100.00;99808.91;5006073;28;19925;-81
2023/07/09 13:43:58;;;;;;;;;;;;;;;12.06;100.00;99826.00;5005087;28;20254;-89
2023/07/09 13:46:25;;;;;;;;;;;;;;;12.25;100.00;99873.75;4987048;28;19956;-84
2023/07/09 13:48:50;;;;;;;;;;;;;;;12.49;100.00;99892.97;4991642;28;20377;-87
2023/07/09 13:51:21;;;;;;;;;;;;;;;12.04;100.00;99888.06;4983790;28;19976;-84
2023/07/09 13:53:48;;;;;;;;;;;;;;;12.40;100.00;99873.94;4983011;28;19922;-87
2023/07/09 13:56:13;;;;;;;;;;;;;;;12.56;100.00;99904.16;4986053;28;19918;-83
2023/07/09 13:58:39;;;;;;;;;;;;;;;12.68;100.00;99935.47;4985845;28;19922;-84
2023/07/09 14:01:12;;;;;;;;;;;;;;;12.61;100.00;99944.66;4984524;28;19964;-84
2023/07/09 14:03:38;;;;;;;;;;;;;;;12.40;100.00;99957.19;4983546;28;20452;-89
2023/07/09 14:06:03;;;;;;;;;;;;;;;12.69;100.00;99952.25;4985912;28;20004;-86
2023/07/09 14:08:28;;;;;;;;;;;;;;;12.72;100.00;99926.38;4983939;28;19922;-86
2023/07/09 14:10:55;;;;;;;;;;;;;;;12.96;100.00;99920.78;4985647;28;19918;-88
2023/07/09 14:13:21;;;;;;;;;;;;;;;12.82;100.00;99917.94;4985368;28;20048;-92
2023/07/09 14:15:47;;;;;;;;;;;;;;;12.52;100.00;99918.53;4982422;28;19925;-92
2023/07/09 14:18:14;;;;;;;;;;;;;;;12.95;100.00;99916.38;4984057;28;19957;-86
2023/07/09 14:20:39;;;;;;;;;;;;;;;13.08;100.00;99913.97;4984703;28;19919;-89
2023/07/09 14:23:04;;;;;;;;;;;;;;;13.21;100.00;99884.91;4985662;28;19965;-84
2023/07/09 14:25:30;;;;;;;;;;;;;;;12.94;100.00;99856.19;4985096;28;19969;-84
2023/07/09 14:27:55;;;;;;;;;;;;;;;12.82;100.00;99832.88;4983909;28;19972;-85
2023/07/09 14:30:22;;;;;;;;;;;;;;;13.02;100.00;99811.41;4985955;28;19944;-87
2023/07/09 14:32:48;;;;;;;;;;;;;;;13.16;100.00;99818.69;4984113;28;19925;-84
2023/07/09 14:35:23;;;;;;;;;;;;;;;13.29;100.00;99828.66;4984182;28;19918;-84
2023/07/09 14:37:49;;;;;;;;;;;;;;;12.87;100.00;99829.00;4983001;28;20430;-85
2023/07/09 14:40:15;;;;;;;;;;;;;;;13.13;100.00;99828.59;4985699;28;19932;-84
2023/07/09 14:42:41;;;;;;;;;;;;;;;13.27;100.00;99818.09;4985194;28;19926;-91
2023/07/09 14:45:16;;;;;;;;;;;;;;;13.32;100.00;99825.81;4983175;28;20578;-85
2023/07/09 14:47:41;;;;;;;;;;;;;;;12.85;100.00;99822.94;4984308;28;20294;-90
2023/07/09 14:50:07;;;;;;;;;;;;;;;12.92;100.00;99819.94;5003857;28;19924;-89
2023/07/09 14:52:32;;;;;;;;;;;;;;;13.16;100.00;99833.75;5003584;28;19932;-87
2023/07/09 14:54:57;;;;;;;;;;;;;;;13.33;100.00;99841.75;5004389;28;19918;-87
2023/07/09 14:57:25;;;;;;;;;;;;;;;13.00;100.00;99857.66;5004089;28;19929;-89
2023/07/09 14:59:51;;;;;;;;;;;;;;;12.83;100.00;99856.72;5002226;28;19922;-87
2023/07/09 15:02:36;;;;;;;;;;;;;;;13.16;100.00;99845.28;5002663;28;19926;-86
2023/07/09 15:05:03;;;;;;;;;;;;;;;13.34;100.00;99837.28;5002016;28;20009;-83
2023/07/09 15:07:29;;;;;;;;;;;;;;;12.99;100.00;99826.69;5000712;28;19922;-87
2023/07/09 15:09:59;;;;;;;;;;;;;;;12.82;100.00;99823.09;5001413;28;20008;-84
2023/07/09 15:12:27;;;;;;;;;;;;;;;13.19;100.00;99834.44;5001513;28;19958;-83
2023/07/09 15:14:54;;;;;;;;;;;;;;;13.35;100.00;99850.50;4982991;28;19922;-83
2023/07/09 15:17:20;;;;;;;;;;;;;;;13.24;100.00;99843.06;5001473;28;19980;-86
2023/07/09 15:19:45;;;;;;;;;;;;;;;12.67;100.00;99843.34;5004142;28;19971;-86
2023/07/09 15:22:37;;;;;;;;;;;;;;;13.16;100.00;99839.97;4986010;28;19922;-84
2023/07/09 15:25:09;;;;;;;;;;;;;;;13.33;100.00;99836.41;4999597;28;19914;-87
2023/07/09 15:27:34;;;;;;;;;;;;;;;13.35;100.00;99841.66;4998111;28;20279;-88
2023/07/09 15:29:59;;;;;;;;;;;;;;;12.83;100.00;99837.25;4985225;28;19926;-85
2023/07/09 15:32:25;;;;;;;;;;;;;;;13.23;100.00;99841.34;4997438;28;19973;-84
2023/07/09 15:34:50;;;;;;;;;;;;;;;13.35;100.00;99833.69;4993940;28;19941;-84
2023/07/09 15:37:16;;;;;;;;;;;;;;;13.35;100.00;99833.69;4976605;28;19981;-89
2023/07/09 15:39:42;;;;;;;;;;;;;;;12.38;100.00;99834.19;4993739;28;19972;-83
2023/07/09 15:42:12;;;;;;;;;;;;;;;12.51;100.00;99834.44;4993933;28;20320;-86
2023/07/09 15:44:37;;;;;;;;;;;;;;;13.04;100.00;99829.97;4975960;28;20385;-86
2023/07/09 15:47:04;;;;;;;;;;;;;;;13.24;100.00;99832.44;4992676;28;19918;-85
2023/07/09 15:49:29;;;;;;;;;;;;;;;13.37;100.00;99816.69;4993036;28;19921;-84
2023/07/09 15:51:55;;;;;;;;;;;;;;;12.60;100.00;99817.16;4994088;28;19924;-84
2023/07/09 15:54:21;;;;;;;;;;;;;;;13.03;100.00;99817.59;4993791;28;19926;-85
2023/07/09 15:56:48;;;;;;;;;;;;;;;13.31;100.00;99822.31;4993522;28;19984;-83
2023/07/09 15:59:16;;;;;;;;;;;;;;;13.45;100.00;99818.94;4976518;28;20033;-88
2023/07/09 16:01:41;;;;;;;;;;;;;;;12.61;100.00;99805.59;4992377;28;20046;-86
2023/07/09 16:04:09;;;;;;;;;;;;;;;12.59;100.00;99804.78;4993880;28;19952;-91
2023/07/09 16:06:37;;;;;;;;;;;;;;;13.12;100.00;99803.81;4976471;28;20296;-90
2023/07/09 16:09:03;;;;;;;;;;;;;;;13.31;100.00;99803.69;4993426;28;20004;-86
2023/07/09 16:11:28;;;;;;;;;;;;;;;13.44;100.00;99802.09;4993417;28;19926;-86
2023/07/09 16:13:53;;;;;;;;;;;;;;;12.61;100.00;99800.28;4976075;28;19993;-88
2023/07/09 16:16:20;;;;;;;;;;;;;;;13.09;100.00;99785.34;4992442;28;19928;-82
2023/07/09 16:18:45;;;;;;;;;;;;;;;12.64;100.00;99789.50;4992314;28;19918;-82
2023/07/09 16:21:24;;;;;;;;;;;;;;;12.90;100.00;99791.63;4975989;28;19973;-82
2023/07/09 16:23:50;;;;;;;;;;;;;;;13.21;100.00;99803.31;4993143;28;20296;-81
2023/07/09 16:26:15;;;;;;;;;;;;;;;13.38;100.00;99793.59;4993032;28;19924;-86
2023/07/09 16:28:40;;;;;;;;;;;;;;;13.05;100.00;99794.41;4975477;28;19945;-89
2023/07/09 16:31:06;;;;;;;;;;;;;;;12.32;100.00;99795.50;4988871;28;19933;-81
2023/07/09 16:33:31;;;;;;;;;;;;;;;12.70;100.00;99794.47;4989996;28;19928;-83
2023/07/09 16:35:56;;;;;;;;;;;;;;;13.09;100.00;99780.03;4973838;28;19929;-82
2023/07/09 16:38:22;;;;;;;;;;;;;;;13.29;100.00;99771.00;4990890;28;19922;-82
2023/07/09 16:40:47;;;;;;;;;;;;;;;13.38;100.00;99764.31;4989975;28;20397;-82
2023/07/09 16:43:14;;;;;;;;;;;;;;;12.71;100.00;99772.25;4975295;28;19982;-82
2023/07/09 16:45:39;;;;;;;;;;;;;;;12.33;100.00;99769.75;4992104;28;19939;-84
2023/07/09 16:48:09;;;;;;;;;;;;;;;12.16;100.00;99774.13;4989935;28;19949;-84
2023/07/09 16:50:34;;;;;;;;;;;;;;;12.52;100.00;99759.94;4972852;28;19936;-82
2023/07/09 16:52:59;;;;;;;;;;;;;;;13.03;100.00;99756.41;4992389;28;19922;-85
2023/07/09 16:55:28;;;;;;;;;;;;;;;13.34;100.00;99750.34;4992777;28;19957;-85
2023/07/09 16:57:58;;;;;;;;;;;;;;;13.41;100.00;99741.06;4973162;28;19969;-82
2023/07/09 17:00:37;;;;;;;;;;;;;;;12.78;100.00;99744.44;4988193;28;19961;-86
2023/07/09 17:03:04;;;;;;;;;;;;;;;13.04;100.00;99740.38;4991309;28;19922;-87
2023/07/09 17:05:29;;;;;;;;;;;;;;;13.32;100.00;99740.66;4974124;28;19922;-87
2023/07/09 17:07:55;;;;;;;;;;;;;;;13.46;100.00;99750.59;4990251;28;19926;-83
2023/07/09 17:10:21;;;;;;;;;;;;;;;13.07;100.00;99750.84;4991714;28;19918;-81
2023/07/09 17:12:51;;;;;;;;;;;;;;;13.03;100.00;99741.31;4974383;28;19976;-87
2023/07/09 17:15:22;;;;;;;;;;;;;;;13.39;100.00;99739.44;4991253;28;19929;-89
2023/07/09 17:17:47;;;;;;;;;;;;;;;13.50;100.00;99742.38;4986112;28;20362;-81
2023/07/09 17:20:13;;;;;;;;;;;;;;;13.21;100.00;99742.13;4973467;28;19964;-82
2023/07/09 17:22:39;;;;;;;;;;;;;;;13.01;100.00;99723.72;4988427;28;19929;-82
2023/07/09 17:25:12;;;;;;;;;;;;;;;13.38;100.00;99737.72;4988588;28;20007;-83
2023/07/09 17:27:38;;;;;;;;;;;;;;;13.55;100.00;99740.28;4973760;28;19969;-82
2023/07/09 17:30:08;;;;;;;;;;;;;;;13.39;100.00;99740.28;4991634;28;19929;-87
2023/07/09 17:32:33;;;;;;;;;;;;;;;13.24;100.00;99746.41;4991235;28;20349;-88
2023/07/09 17:34:59;;;;;;;;;;;;;;;13.50;100.00;99742.38;4974392;28;19918;-83
2023/07/09 17:37:24;;;;;;;;;;;;;;;13.71;100.00;99740.28;4992232;28;19926;-84
2023/07/09 17:39:51;;;;;;;;;;;;;;;13.25;100.00;99732.19;4992491;28;20394;-83
2023/07/09 17:42:17;;;;;;;;;;;;;;;12.63;100.00;99739.91;4974953;28;19929;-83
2023/07/09 17:44:43;;;;;;;;;;;;;;;13.14;100.00;99738.06;4992926;28;20420;-83
2023/07/09 17:47:15;;;;;;;;;;;;;;;13.39;100.00;99745.63;4991097;28;19922;-86
2023/07/09 17:49:41;;;;;;;;;;;;;;;13.56;100.00;99744.69;4973597;28;20377;-86
2023/07/09 17:52:16;;;;;;;;;;;;;;;13.02;100.00;99744.03;4990869;28;19930;-83
2023/07/09 17:54:42;;;;;;;;;;;;;;;13.44;100.00;99745.38;4989944;28;19925;-83
2023/07/09 17:57:10;;;;;;;;;;;;;;;13.69;100.00;99752.84;4974125;28;20289;-83
2023/07/09 17:59:36;;;;;;;;;;;;;;;17.13;100.00;99744.53;4990830;28;19914;-83
2023/07/09 18:02:13;;;;;;;;;;;;;;;13.73;100.00;99740.22;4988565;28;19925;-85
2023/07/09 18:04:39;;;;;;;;;;;;;;;13.71;100.00;99734.97;4973089;28;19926;-81
2023/07/09 18:07:16;;;;;;;;;;;;;;;13.60;100.00;99740.88;4991024;28;19930;-81
2023/07/09 18:09:42;;;;;;;;;;;;;;;13.32;100.00;99740.66;4991166;28;20012;-83
2023/07/09 18:12:11;;;;;;;;;;;;;;;12.91;100.00;99736.66;4989650;28;19962;-84
2023/07/09 18:14:37;;;;;;;;;;;;;;;13.04;100.00;99739.53;4994262;28;19928;-82
2023/07/09 18:17:08;;;;;;;;;;;;;;;13.14;100.00;99748.72;4992975;28;20005;-82
2023/07/09 18:19:34;;;;;;;;;;;;;;;13.24;100.00;99757.94;4992042;28;19933;-82
2023/07/09 18:22:00;;;;;;;;;;;;;;;12.74;100.00;99758.81;4994426;28;20376;-82
2023/07/09 18:24:25;;;;;;;;;;;;;;;12.60;100.00;99758.69;4993858;28;20016;-82
2023/07/09 18:26:51;;;;;;;;;;;;;;;12.88;100.00;99771.41;4994436;28;20012;-82
2023/07/09 18:29:22;;;;;;;;;;;;;;;13.15;100.00;99769.06;4994571;28;19918;-83
2023/07/09 18:31:48;;;;;;;;;;;;;;;13.51;100.00;99776.00;4988806;28;19925;-85
2023/07/09 18:34:13;;;;;;;;;;;;;;;12.65;100.00;99775.25;4987759;28;19918;-84
2023/07/09 18:36:38;;;;;;;;;;;;;;;12.13;100.00;99768.97;4994162;28;19969;-80
2023/07/09 18:39:03;;;;;;;;;;;;;;;12.11;100.00;99770.84;4994499;28;19969;-84
2023/07/09 18:41:29;;;;;;;;;;;;;;;12.58;100.00;99772.03;4994049;28;19928;-81
2023/07/09 18:43:54;;;;;;;;;;;;;;;12.68;100.00;99775.09;4993887;28;20481;-82
2023/07/09 18:46:20;;;;;;;;;;;;;;;12.72;100.00;99776.66;4992989;28;20748;-80
2023/07/09 18:48:45;;;;;;;;;;;;;;;12.48;100.00;99771.66;4920032;28;2132972;-82
2023/07/09 18:51:11;;;;;;;;;;;;;;;11.85;100.00;99765.91;4995059;28;19929;-83
2023/07/09 18:53:37;;;;;;;;;;;;;;;11.59;100.00;99757.41;4976251;28;19953;-84
2023/07/09 18:56:02;;;;;;;;;;;;;;;11.47;100.00;99760.63;4995062;28;20265;-81
2023/07/09 18:58:28;;;;;;;;;;;;;;;11.35;100.00;99760.28;4976626;28;20392;-82
2023/07/09 19:00:54;;;;;;;;;;;;;;;11.38;100.00;99759.28;4977286;28;19922;-84
2023/07/09 19:03:21;;;;;;;;;;;;;;;11.91;100.00;99768.28;4992703;28;19918;-81
2023/07/09 19:05:47;;;;;;;;;;;;;;;12.18;100.00;99769.59;4994482;28;20381;-90
2023/07/09 19:08:21;;;;;;;;;;;;;;;12.28;100.00;99771.81;4995039;28;19922;-82
2023/07/09 19:10:46;;;;;;;;;;;;;;;11.99;100.00;99768.78;4969376;28;20316;-81
2023/07/09 19:13:11;;;;;;;;;;;;;;;11.60;100.00;99764.47;4989863;28;19918;-83
2023/07/09 19:15:38;;;;;;;;;;;;;;;11.94;100.00;99762.84;4990375;28;19929;-83
2023/07/09 19:18:04;;;;;;;;;;;;;;;12.20;100.00;99768.66;4990193;28;19918;-82
2023/07/09 19:20:29;;;;;;;;;;;;;;;12.28;100.00;99771.81;4976094;28;19929;-81
2023/07/09 19:22:55;;;;;;;;;;;;;;;11.71;100.00;99775.41;4993580;28;19934;-82
2023/07/09 19:25:22;;;;;;;;;;;;;;;11.47;100.00;99764.16;4993488;28;19917;-81
2023/07/09 19:27:47;;;;;;;;;;;;;;;11.31;100.00;99776.41;4975159;28;19929;-82
2023/07/09 19:30:13;;;;;;;;;;;;;;;11.29;100.00;99763.22;4991430;28;20345;-82
2023/07/09 19:32:39;;;;;;;;;;;;;;;11.21;100.00;99760.06;4990848;28;19921;-87
2023/07/09 19:35:05;;;;;;;;;;;;;;;11.17;100.00;99762.00;4976648;28;19918;-87
2023/07/09 19:37:31;;;;;;;;;;;;;;;11.78;100.00;99770.66;4992914;28;20629;-81
2023/07/09 19:39:56;;;;;;;;;;;;;;;11.57;100.00;99775.22;4993658;28;19936;-83
2023/07/09 19:42:23;;;;;;;;;;;;;;;12.36;100.00;99782.91;4976675;28;20365;-85
2023/07/09 19:44:52;;;;;;;;;;;;;;;11.02;100.00;99782.09;4994252;28;19961;-84
2023/07/09 19:47:19;;;;;;;;;;;;;;;11.33;100.00;99796.66;4992664;28;20402;-83
2023/07/09 19:49:45;;;;;;;;;;;;;;;11.84;100.00;99799.59;4993541;28;19930;-81
2023/07/09 19:52:13;;;;;;;;;;;;;;;11.93;100.00;99804.47;4994006;28;20616;-79
2023/07/09 19:54:39;;;;;;;;;;;;;;;11.59;100.00;99815.78;4993894;28;19956;-79
2023/07/09 19:57:05;;;;;;;;;;;;;;;10.90;100.00;99812.69;4993860;28;19969;-79
2023/07/09 19:59:30;;;;;;;;;;;;;;;10.81;100.00;99814.88;4993771;28;20373;-81
2023/07/09 20:01:55;;;;;;;;;;;;;;;10.83;100.00;99810.34;4991243;28;19983;-81
2023/07/09 20:04:20;;;;;;;;;;;;;;;10.72;100.00;99802.88;4993588;28;19926;-82
2023/07/09 20:06:46;;;;;;;;;;;;;;;11.14;100.00;99814.31;4993516;28;19929;-81
2023/07/09 20:09:12;;;;;;;;;;;;;;;11.61;100.00;99813.94;4993179;28;20384;-81
2023/07/09 20:11:38;;;;;;;;;;;;;;;11.76;100.00;99825.63;4993566;28;19928;-80
2023/07/09 20:14:09;;;;;;;;;;;;;;;11.80;100.00;99825.38;4992911;28;20004;-80
2023/07/09 20:16:34;;;;;;;;;;;;;;;11.15;100.00;99819.53;4991517;28;19957;-84
2023/07/09 20:19:00;;;;;;;;;;;;;;;11.63;100.00;99818.25;4993317;28;19984;-83
2023/07/09 20:21:26;;;;;;;;;;;;;;;11.76;100.00;99834.44;4991931;28;19918;-81
2023/07/09 20:23:51;;;;;;;;;;;;;;;11.91;100.00;99839.97;4993080;28;19922;-84
2023/07/09 20:26:16;;;;;;;;;;;;;;;11.76;100.00;99847.72;4993289;28;19977;-85
2023/07/09 20:28:42;;;;;;;;;;;;;;;11.48;100.00;99842.81;4990923;28;20369;-85
2023/07/09 20:31:16;;;;;;;;;;;;;;;11.91;100.00;99850.59;4989433;28;19929;-85
2023/07/09 20:33:42;;;;;;;;;;;;;;;12.10;100.00;99859.41;4993263;28;19953;-83
2023/07/09 20:36:07;;;;;;;;;;;;;;;12.18;100.00;99864.38;4992661;28;19988;-83
2023/07/09 20:38:33;;;;;;;;;;;;;;;11.42;100.00;99870.50;4992807;28;19921;-85
2023/07/09 20:40:58;;;;;;;;;;;;;;;11.20;100.00;99865.28;4990726;28;20288;-81
2023/07/09 20:43:28;;;;;;;;;;;;;;;11.11;100.00;99862.19;4992925;28;20432;-80
2023/07/09 20:45:54;;;;;;;;;;;;;;;11.01;100.00;99857.28;4992820;28;19918;-82
2023/07/09 20:48:19;;;;;;;;;;;;;;;10.95;100.00;99857.53;4991380;28;20032;-80
2023/07/09 20:50:45;;;;;;;;;;;;;;;11.09;100.00;99856.97;4992558;28;20281;-81
2023/07/09 20:53:14;;;;;;;;;;;;;;;11.74;100.00;99860.22;4992455;28;19918;-81
2023/07/09 20:55:41;;;;;;;;;;;;;;;12.05;100.00;99864.09;4992183;28;20012;-83
2023/07/09 20:58:17;;;;;;;;;;;;;;;12.26;100.00;99874.63;4991784;28;19928;-85
2023/07/09 21:00:43;;;;;;;;;;;;;;;11.66;100.00;99877.41;4990886;28;19977;-81
2023/07/09 21:03:10;;;;;;;;;;;;;;;11.80;100.00;99877.63;4989888;28;19922;-82
2023/07/09 21:05:35;;;;;;;;;;;;;;;12.21;100.00;99887.28;4992429;28;19921;-83
2023/07/09 21:08:00;;;;;;;;;;;;;;;12.43;100.00;99881.75;4990099;28;19989;-83
2023/07/09 21:10:26;;;;;;;;;;;;;;;12.16;100.00;99890.16;4991654;28;20349;-80
2023/07/09 21:12:51;;;;;;;;;;;;;;;11.61;100.00;99885.56;4992604;28;20333;-80
2023/07/09 21:15:24;;;;;;;;;;;;;;;11.50;100.00;99890.50;4992256;28;20409;-81
2023/07/09 21:17:50;;;;;;;;;;;;;;;11.41;100.00;99879.38;4990786;28;19925;-80
2023/07/09 21:20:17;;;;;;;;;;;;;;;11.27;100.00;99877.34;4992583;28;19917;-81
2023/07/09 21:22:42;;;;;;;;;;;;;;;11.34;100.00;99875.28;4992543;28;19969;-80
2023/07/09 21:25:15;;;;;;;;;;;;;;;11.94;100.00;99877.03;4992332;28;19980;-80
2023/07/09 21:27:41;;;;;;;;;;;;;;;12.28;100.00;99883.38;4991237;28;20436;-86
2023/07/09 21:30:07;;;;;;;;;;;;;;;12.49;100.00;99887.66;4992218;28;19925;-80
2023/07/09 21:32:32;;;;;;;;;;;;;;;12.11;100.00;99887.72;4990399;28;19922;-81
2023/07/09 21:34:58;;;;;;;;;;;;;;;12.05;100.00;99890.66;4992303;28;19922;-80
2023/07/09 21:37:24;;;;;;;;;;;;;;;12.47;100.00;99896.63;4992159;28;19929;-80
2023/07/09 21:39:49;;;;;;;;;;;;;;;12.65;100.00;99897.50;4992306;28;20361;-83
2023/07/09 21:42:15;;;;;;;;;;;;;;;12.48;100.00;99896.56;4992589;28;19918;-80
2023/07/09 21:44:41;;;;;;;;;;;;;;;11.84;100.00;99895.16;4992051;28;19960;-80
2023/07/09 21:47:10;;;;;;;;;;;;;;;12.20;100.00;99894.38;4991615;28;19957;-80
2023/07/09 21:49:38;;;;;;;;;;;;;;;12.60;100.00;99894.22;4989508;28;19944;-86
2023/07/09 21:52:03;;;;;;;;;;;;;;;12.82;100.00;99897.53;4975135;28;19926;-80
2023/07/09 21:54:35;;;;;;;;;;;;;;;12.40;100.00;99898.72;4995829;28;19924;-85
2023/07/09 21:57:01;;;;;;;;;;;;;;;11.88;100.00;99895.88;4996020;28;19917;-80
2023/07/09 21:59:28;;;;;;;;;;;;;;;12.48;100.00;99893.91;4978401;28;20027;-81
2023/07/09 22:01:57;;;;;;;;;;;;;;;12.68;100.00;99902.69;4994037;28;19928;-80
2023/07/09 22:04:35;;;;;;;;;;;;;;;12.87;100.00;99899.97;4994862;28;19920;-81
2023/07/09 22:07:09;;;;;;;;;;;;;;;12.31;100.00;99904.50;4977928;28;20287;-80
2023/07/09 22:09:35;;;;;;;;;;;;;;;12.52;100.00;99892.81;4995654;28;19922;-80
2023/07/09 22:12:01;;;;;;;;;;;;;;;12.83;100.00;99901.94;4995685;28;19918;-80
2023/07/09 22:14:26;;;;;;;;;;;;;;;13.02;100.00;99903.63;4994166;28;20016;-80
2023/07/09 22:16:51;;;;;;;;;;;;;;;12.43;100.00;99903.03;4994373;28;19963;-80
2023/07/09 22:19:18;;;;;;;;;;;;;;;11.99;100.00;99896.25;4995405;28;19918;-80
2023/07/09 22:21:43;;;;;;;;;;;;;;;11.88;100.00;99898.53;4978062;28;19922;-80
2023/07/09 22:24:15;;;;;;;;;;;;;;;11.75;100.00;99899.06;4995319;28;19925;-80
2023/07/09 22:26:40;;;;;;;;;;;;;;;11.69;100.00;99893.19;4995397;28;19918;-81
2023/07/09 22:29:05;;;;;;;;;;;;;;;12.21;100.00;99898.75;4977269;28;20770;-80
2023/07/09 22:31:32;;;;;;;;;;;;;;;12.58;100.00;99898.78;4993958;28;19953;-80
2023/07/09 22:33:58;;;;;;;;;;;;;;;12.81;100.00;99900.25;4995283;28;19992;-81
2023/07/09 22:36:23;;;;;;;;;;;;;;;12.48;100.00;99901.03;4977708;28;19922;-87
2023/07/09 22:38:48;;;;;;;;;;;;;;;12.12;100.00;99897.38;4995206;28;19918;-81
2023/07/09 22:41:13;;;;;;;;;;;;;;;11.94;100.00;99896.47;4995146;28;19918;-80
2023/07/09 22:43:39;;;;;;;;;;;;;;;11.74;100.00;99884.09;4977421;28;19965;-80
2023/07/09 22:46:04;;;;;;;;;;;;;;;11.65;100.00;99884.53;4994244;28;19921;-79
2023/07/09 22:48:30;;;;;;;;;;;;;;;11.51;100.00;99890.44;4994249;28;20404;-79
2023/07/09 22:50:55;;;;;;;;;;;;;;;11.51;100.00;99892.25;4977471;28;19918;-80
2023/07/09 22:53:21;;;;;;;;;;;;;;;11.51;100.00;99897.56;4994859;28;19933;-80
2023/07/09 22:55:47;;;;;;;;;;;;;;;11.44;100.00;99892.53;4994152;28;19917;-80
2023/07/09 22:58:14;;;;;;;;;;;;;;;11.36;100.00;99889.34;4977171;28;19925;-79
2023/07/09 23:00:44;;;;;;;;;;;;;;;11.39;100.00;99897.19;4994731;28;19922;-80
2023/07/09 23:03:11;;;;;;;;;;;;;;;11.35;100.00;99887.63;4993594;28;19921;-87
2023/07/09 23:05:37;;;;;;;;;;;;;;;11.43;100.00;99896.09;4977324;28;19921;-80
2023/07/09 23:08:05;;;;;;;;;;;;;;;11.34;100.00;99893.84;4994620;28;19965;-86
2023/07/09 23:10:30;;;;;;;;;;;;;;;11.28;100.00;99899.44;4994546;28;19969;-80
2023/07/09 23:12:56;;;;;;;;;;;;;;;11.29;100.00;99902.94;4977019;28;20724;-81
2023/07/09 23:15:24;;;;;;;;;;;;;;;11.37;100.00;99901.66;4994438;28;19918;-83
2023/07/09 23:17:51;;;;;;;;;;;;;;;11.31;100.00;99904.59;4992695;28;20376;-80
2023/07/09 23:20:16;;;;;;;;;;;;;;;11.30;100.00;99905.53;4974441;28;19968;-89
2023/07/09 23:22:41;;;;;;;;;;;;;;;11.29;100.00;99910.91;4974817;28;19965;-81
2023/07/09 23:25:08;;;;;;;;;;;;;;;11.28;100.00;99902.09;4994238;28;19924;-83
2023/07/09 23:27:33;;;;;;;;;;;;;;;11.30;100.00;99907.34;4976498;28;19966;-87
2023/07/09 23:29:58;;;;;;;;;;;;;;;11.21;100.00;99912.09;4993360;28;19925;-86
2023/07/09 23:32:24;;;;;;;;;;;;;;;11.33;100.00;99912.47;4992859;28;19965;-86
2023/07/09 23:34:49;;;;;;;;;;;;;;;11.29;100.00;99913.56;4976676;28;19921;-80
2023/07/09 23:37:15;;;;;;;;;;;;;;;11.26;100.00;99914.53;4994055;28;20377;-80
2023/07/09 23:39:41;;;;;;;;;;;;;;;11.21;100.00;99917.41;4994011;28;19929;-80
2023/07/09 23:42:07;;;;;;;;;;;;;;;12.87;100.00;99899.97;4976510;28;19922;-80
2023/07/09 23:44:33;;;;;;;;;;;;;;;11.32;100.00;99898.38;4988348;28;19932;-80
2023/07/09 23:46:58;;;;;;;;;;;;;;;10.96;100.00;99896.41;4988237;28;19922;-80
2023/07/09 23:49:25;;;;;;;;;;;;;;;10.64;100.00;99895.97;4972487;28;19977;-84
2023/07/09 23:51:50;;;;;;;;;;;;;;;10.57;100.00;99898.94;4983605;28;19930;-82
2023/07/09 23:54:16;;;;;;;;;;;;;;;10.35;100.00;99905.97;4988113;28;20411;-81
2023/07/09 23:56:43;;;;;;;;;;;;;;;10.27;100.00;99901.84;4991645;28;19926;-80
2023/07/09 23:59:12;;;;;;;;;;;;;;;10.19;100.00;99896.84;4991413;28;19944;-82
